Time;durP1;ratioP1;P1;durP2;ratioP2;P2;SDS_P1;SDS_P2;PMS_P1;PMS_P2;Temp;Humidity;BMP_temperature;BMP_pressure;BME280_temperature;BME280_humidity;BME280_pressure;Samples;Min_cycle;Max_cycle;Signal;HPM_P1;HPM_P2
2023/05/24 00:02:06;;;;;;;4.43;3.97;;;19.80;48.30;;;;;;5115131;28;20187;-83
2023/05/24 00:04:32;;;;;;;3.92;3.53;;;19.70;48.20;;;;;;5113996;28;20145;-83
2023/05/24 00:07:02;;;;;;;3.80;3.40;;;19.70;48.10;;;;;;5096833;28;20168;-83
2023/05/24 00:09:28;;;;;;;3.60;3.30;;;19.70;48.10;;;;;;5113832;28;20173;-83
2023/05/24 00:11:54;;;;;;;3.70;3.30;;;19.70;48.20;;;;;;5113874;28;20576;-83
2023/05/24 00:14:20;;;;;;;3.40;3.10;;;19.70;48.10;;;;;;5096777;28;20519;-83
2023/05/24 00:16:46;;;;;;;3.90;3.50;;;19.70;48.10;;;;;;5097106;28;20175;-83
2023/05/24 00:19:17;;;;;;;4.10;3.70;;;19.70;48.30;;;;;;5113684;28;20625;-83
2023/05/24 00:21:44;;;;;;;4.00;3.55;;;19.80;49.20;;;;;;5115013;28;20152;-83
2023/05/24 00:24:10;;;;;;;4.05;3.65;;;19.70;48.60;;;;;;5099782;28;20255;-83
2023/05/24 00:26:36;;;;;;;4.00;3.60;;;19.70;48.60;;;;;;5093227;28;20193;-83
2023/05/24 00:29:02;;;;;;;3.42;3.13;;;19.70;48.70;;;;;;5093208;28;20244;-83
2023/05/24 00:31:27;;;;;;;3.55;3.25;;;19.70;48.90;;;;;;5093093;28;20148;-83
2023/05/24 00:33:53;;;;;;;4.00;3.60;;;19.70;48.90;;;;;;5093458;28;20168;-83
2023/05/24 00:36:19;;;;;;;4.32;3.58;;;19.70;48.90;;;;;;5092996;28;20198;-83
2023/05/24 00:38:44;;;;;;;4.40;3.40;;;19.70;48.80;;;;;;5094300;28;20157;-83
2023/05/24 00:41:10;;;;;;;3.88;3.33;;;19.70;48.80;;;;;;5093395;28;20226;-83
2023/05/24 00:43:36;;;;;;;3.65;3.30;;;19.60;48.70;;;;;;5094052;28;20210;-83
2023/05/24 00:46:21;;;;;;;3.90;3.50;;;19.70;48.90;;;;;;5092874;28;20156;-83
2023/05/24 00:48:47;;;;;;;3.83;3.53;;;19.70;48.70;;;;;;5076377;28;20519;-83
2023/05/24 00:51:13;;;;;;;4.07;3.35;;;19.70;48.70;;;;;;5093164;28;20149;-83
2023/05/24 00:53:40;;;;;;;4.00;3.60;;;19.70;48.50;;;;;;5092643;28;20149;-83
2023/05/24 00:56:05;;;;;;;3.83;3.45;;;19.70;48.30;;;;;;5093023;28;20210;-83
2023/05/24 00:58:31;;;;;;;4.00;3.60;;;19.70;48.30;;;;;;5093750;28;20161;-83
2023/05/24 01:00:58;;;;;;;3.85;3.45;;;19.70;48.40;;;;;;5092622;28;20213;-83
2023/05/24 01:03:28;;;;;;;3.75;3.45;;;19.70;48.40;;;;;;5075790;28;20259;-83
2023/05/24 01:05:55;;;;;;;3.40;3.10;;;19.60;48.30;;;;;;5092571;28;20155;-83
2023/05/24 01:08:48;;;;;;;3.97;3.65;;;19.70;48.40;;;;;;5093907;28;20188;-83
2023/05/24 01:11:23;;;;;;;3.53;3.22;;;19.70;48.40;;;;;;5092282;28;20161;-83
2023/05/24 01:14:03;;;;;;;4.18;3.50;;;19.60;48.40;;;;;;5076819;28;20532;-83
2023/05/24 01:16:40;;;;;;;3.80;3.45;;;19.70;48.50;;;;;;5076286;28;20273;-83
2023/05/24 01:19:26;;;;;;;4.10;3.65;;;19.60;48.30;;;;;;5093060;28;20637;-83
2023/05/24 01:22:17;;;;;;;3.90;3.50;;;19.60;48.40;;;;;;5077805;28;20172;-83
2023/05/24 01:24:54;;;;;;;3.70;3.40;;;19.60;48.50;;;;;;5092175;28;20618;-83
2023/05/24 01:27:21;;;;;;;4.07;3.67;;;19.70;48.60;;;;;;5093558;28;20194;-83
2023/05/24 01:29:52;;;;;;;4.03;3.60;;;19.60;48.50;;;;;;5092342;28;20167;-83
2023/05/24 01:32:18;;;;;;;3.85;3.40;;;19.60;48.50;;;;;;5092455;28;20171;-83
2023/05/24 01:34:44;;;;;;;4.18;3.78;;;19.60;48.60;;;;;;5075620;28;20165;-83
2023/05/24 01:37:09;;;;;;;3.80;3.40;;;19.60;48.50;;;;;;5092240;28;20249;-83
2023/05/24 01:39:35;;;;;;;3.90;3.50;;;19.60;48.50;;;;;;5092400;28;20209;-83
2023/05/24 01:42:10;;;;;;;3.50;3.20;;;19.60;48.50;;;;;;5092416;28;20164;-83
2023/05/24 01:44:58;;;;;;;3.92;3.53;;;19.60;48.60;;;;;;5092266;28;20149;-83
2023/05/24 01:47:30;;;;;;;4.07;3.67;;;19.60;48.60;;;;;;5092678;28;20226;-83
2023/05/24 01:49:58;;;;;;;3.65;3.35;;;19.60;48.60;;;;;;5092171;28;20157;-83
2023/05/24 01:52:27;;;;;;;3.78;3.38;;;19.60;48.60;;;;;;5092533;28;20141;-83
2023/05/24 01:54:53;;;;;;;3.55;3.25;;;19.60;48.60;;;;;;5092191;28;20172;-83
2023/05/24 01:57:20;;;;;;;3.28;2.97;;;19.60;48.60;;;;;;5092017;28;20165;-83
2023/05/24 01:59:45;;;;;;;4.05;3.35;;;19.70;48.70;;;;;;5092396;28;20161;-83
2023/05/24 02:02:11;;;;;;;3.83;3.47;;;19.60;48.60;;;;;;5092063;28;20182;-83
2023/05/24 02:04:37;;;;;;;4.38;3.67;;;19.60;48.70;;;;;;5092474;28;20523;-82
2023/05/24 02:07:03;;;;;;;3.75;3.42;;;19.60;48.70;;;;;;5091873;28;20302;-82
2023/05/24 02:09:28;;;;;;;4.53;3.88;;;19.60;48.70;;;;;;5091872;28;20223;-83
2023/05/24 02:11:54;;;;;;;4.20;3.80;;;19.60;48.70;;;;;;5074957;28;20247;-82
2023/05/24 02:14:19;;;;;;;3.75;3.35;;;19.60;48.70;;;;;;5074975;28;20511;-82
2023/05/24 02:16:46;;;;;;;3.85;3.45;;;19.60;48.70;;;;;;5093040;28;20161;-82
2023/05/24 02:19:13;;;;;;;3.85;3.45;;;19.60;49.40;;;;;;5091943;28;20645;-83
2023/05/24 02:21:39;;;;;;;3.83;3.42;;;19.60;48.70;;;;;;5091853;28;20157;-82
2023/05/24 02:24:06;;;;;;;3.83;3.53;;;19.60;48.70;;;;;;5120383;27;20207;-82
2023/05/24 02:26:32;;;;;;;3.97;3.58;;;19.50;48.60;;;;;;5119827;27;20156;-82
2023/05/24 02:28:58;;;;;;;4.22;3.80;;;19.60;48.70;;;;;;5119384;27;20183;-82
2023/05/24 02:31:27;;;;;;;4.03;3.63;;;19.60;48.70;;;;;;5119347;27;20223;-82
2023/05/24 02:33:54;;;;;;;3.88;3.47;;;19.60;48.70;;;;;;5119235;27;20163;-83
2023/05/24 02:36:22;;;;;;;4.13;3.72;;;19.60;48.70;;;;;;5119322;27;20151;-82
2023/05/24 02:38:49;;;;;;;4.00;3.60;;;19.60;48.70;;;;;;5102538;27;20187;-82
2023/05/24 02:41:17;;;;;;;3.85;3.28;;;19.60;48.70;;;;;;5119147;27;20152;-82
2023/05/24 02:43:45;;;;;;;3.83;3.42;;;19.60;48.70;;;;;;5119183;27;20167;-82
2023/05/24 02:46:11;;;;;;;4.00;3.60;;;19.60;48.70;;;;;;5119006;27;20163;-82
2023/05/24 02:48:37;;;;;;;3.70;3.40;;;19.50;48.80;;;;;;5137140;27;20179;-83
2023/05/24 02:51:03;;;;;;;3.78;3.38;;;19.50;48.70;;;;;;5118741;27;20167;-82
2023/05/24 02:53:31;;;;;;;4.13;3.72;;;19.50;48.80;;;;;;5118890;27;20144;-82
2023/05/24 02:55:57;;;;;;;3.58;3.28;;;19.50;48.80;;;;;;5101758;27;20209;-82
2023/05/24 02:58:22;;;;;;;4.28;3.88;;;19.50;48.80;;;;;;5118605;27;20167;-83
2023/05/24 03:00:48;;;;;;;4.80;4.00;;;19.50;48.80;;;;;;5118749;27;20170;-82
2023/05/24 03:03:14;;;;;;;3.78;3.47;;;19.50;48.90;;;;;;5118594;27;20178;-82
2023/05/24 03:05:40;;;;;;;4.05;3.63;;;19.50;48.90;;;;;;5118445;27;20156;-82
2023/05/24 03:08:06;;;;;;;3.75;3.45;;;19.50;49.00;;;;;;5118397;27;20183;-82
2023/05/24 03:10:31;;;;;;;4.03;3.60;;;19.50;49.00;;;;;;5136671;27;20148;-82
2023/05/24 03:12:57;;;;;;;4.00;3.60;;;19.50;49.00;;;;;;5118505;27;20151;-82
2023/05/24 03:15:23;;;;;;;3.88;3.47;;;19.50;49.00;;;;;;5118409;27;20230;-82
2023/05/24 03:17:48;;;;;;;4.07;3.40;;;19.50;49.10;;;;;;5101583;27;20632;-82
2023/05/24 03:20:14;;;;;;;3.90;3.50;;;19.50;49.10;;;;;;5118172;27;20174;-82
2023/05/24 03:22:40;;;;;;;3.88;3.47;;;19.50;49.10;;;;;;5118053;27;20151;-83
2023/05/24 03:25:07;;;;;;;3.78;3.42;;;19.50;49.10;;;;;;5118266;27;20162;-82
2023/05/24 03:27:33;;;;;;;3.90;3.50;;;19.50;49.00;;;;;;5118249;27;20217;-82
2023/05/24 03:29:59;;;;;;;3.90;3.45;;;19.50;49.00;;;;;;5101075;27;20166;-82
2023/05/24 03:32:25;;;;;;;3.83;3.42;;;19.50;49.00;;;;;;5118016;27;20139;-82
2023/05/24 03:34:50;;;;;;;3.97;3.60;;;19.50;49.10;;;;;;5135987;27;20510;-82
2023/05/24 03:37:16;;;;;;;4.03;3.63;;;19.50;49.10;;;;;;5117962;27;20574;-83
2023/05/24 03:39:42;;;;;;;3.75;3.38;;;19.40;49.10;;;;;;5100804;27;20525;-82
2023/05/24 03:42:07;;;;;;;3.90;3.50;;;19.50;49.10;;;;;;5136128;27;20571;-82
2023/05/24 03:44:33;;;;;;;4.05;3.65;;;19.50;49.10;;;;;;5136019;27;20216;-83
2023/05/24 03:46:59;;;;;;;3.90;3.50;;;19.50;49.10;;;;;;5117744;27;20498;-83
2023/05/24 03:49:24;;;;;;;3.90;3.50;;;19.50;49.10;;;;;;5135160;27;20196;-82
2023/05/24 03:51:50;;;;;;;3.63;3.33;;;19.50;49.10;;;;;;5117600;27;20164;-82
2023/05/24 03:54:16;;;;;;;3.80;3.47;;;19.50;49.00;;;;;;5117597;27;20636;-82
2023/05/24 03:56:42;;;;;;;4.05;3.38;;;19.50;49.10;;;;;;5135750;27;20238;-82
2023/05/24 03:59:08;;;;;;;3.65;3.35;;;19.50;49.00;;;;;;5117530;27;20195;-82
2023/05/24 04:01:35;;;;;;;3.50;3.20;;;19.50;49.00;;;;;;5117615;27;20167;-83
2023/05/24 04:04:02;;;;;;;4.20;3.78;;;19.60;49.00;;;;;;5135620;27;20180;-83
2023/05/24 04:06:28;;;;;;;3.78;3.30;;;19.50;49.00;;;;;;5100267;27;20625;-82
2023/05/24 04:08:55;;;;;;;3.60;3.30;;;19.50;49.00;;;;;;5100104;27;20202;-82
2023/05/24 04:11:22;;;;;;;4.25;3.80;;;19.60;48.90;;;;;;5100246;27;20174;-82
2023/05/24 04:13:49;;;;;;;4.18;3.78;;;19.60;48.90;;;;;;5134591;27;20167;-82
2023/05/24 04:16:15;;;;;;;3.97;3.58;;;19.60;48.80;;;;;;5117247;27;20602;-83
2023/05/24 04:18:40;;;;;;;3.50;3.20;;;19.60;48.80;;;;;;5100317;27;20175;-82
2023/05/24 04:21:06;;;;;;;4.00;3.60;;;19.60;48.70;;;;;;5117058;27;20186;-82
2023/05/24 04:23:31;;;;;;;3.53;3.22;;;19.70;48.70;;;;;;5116638;27;20242;-82
2023/05/24 04:25:57;;;;;;;4.00;3.60;;;19.60;48.80;;;;;;5117220;27;20220;-83
2023/05/24 04:28:23;;;;;;;3.70;3.38;;;19.60;48.70;;;;;;5116821;27;20197;-83
2023/05/24 04:30:50;;;;;;;4.18;3.63;;;19.70;48.80;;;;;;5116717;27;20174;-83
2023/05/24 04:33:16;;;;;;;3.90;3.53;;;19.60;48.70;;;;;;5116873;27;20528;-82
2023/05/24 04:35:43;;;;;;;4.07;3.67;;;19.70;48.70;;;;;;5116705;27;20231;-82
2023/05/24 04:38:11;;;;;;;3.90;3.50;;;19.70;48.70;;;;;;5135009;27;20154;-82
2023/05/24 04:40:37;;;;;;;3.95;3.50;;;19.70;48.70;;;;;;5116533;27;20175;-82
2023/05/24 04:43:05;;;;;;;4.05;3.65;;;19.70;48.70;;;;;;5116692;27;20174;-82
2023/05/24 04:45:31;;;;;;;4.07;3.67;;;19.70;48.70;;;;;;5133796;27;20273;-81
2023/05/24 04:47:57;;;;;;;4.30;3.90;;;19.70;48.60;;;;;;5115811;27;20194;-82
2023/05/24 04:50:23;;;;;;;3.47;3.17;;;19.70;48.70;;;;;;5116660;27;20163;-82
2023/05/24 04:52:48;;;;;;;3.95;3.55;;;19.70;48.60;;;;;;5134799;27;20151;-82
2023/05/24 04:55:14;;;;;;;3.75;3.30;;;19.70;49.30;;;;;;5099446;27;20510;-82
2023/05/24 04:57:40;;;;;;;3.97;3.58;;;19.70;48.60;;;;;;5116327;27;20178;-82
2023/05/24 05:00:06;;;;;;;3.50;3.20;;;19.70;48.70;;;;;;5116334;27;20152;-82
2023/05/24 05:02:32;;;;;;;3.88;3.30;;;19.70;48.60;;;;;;5134636;27;20183;-82
2023/05/24 05:04:58;;;;;;;3.85;3.28;;;19.80;48.60;;;;;;5099413;27;20632;-82
2023/05/24 05:07:23;;;;;;;3.47;3.17;;;19.70;48.60;;;;;;5116183;27;20155;-82
2023/05/24 05:09:49;;;;;;;3.50;3.20;;;19.70;48.50;;;;;;5134471;27;20515;-82
2023/05/24 05:12:15;;;;;;;3.85;3.45;;;19.70;48.50;;;;;;5134710;27;20182;-82
2023/05/24 05:14:41;;;;;;;3.55;3.25;;;19.70;48.50;;;;;;5116473;28;20171;-82
2023/05/24 05:17:06;;;;;;;3.88;3.47;;;19.80;48.50;;;;;;5116279;28;20156;-82
2023/05/24 05:19:32;;;;;;;3.90;3.53;;;19.80;48.50;;;;;;5116061;27;20155;-82
2023/05/24 05:21:58;;;;;;;3.80;3.45;;;19.80;48.50;;;;;;5134378;27;20200;-82
2023/05/24 05:24:23;;;;;;;3.50;3.20;;;19.80;48.50;;;;;;5115898;28;20649;-82
2023/05/24 05:26:49;;;;;;;3.55;3.25;;;19.80;48.50;;;;;;5116016;28;20158;-82
2023/05/24 05:29:15;;;;;;;3.75;3.35;;;19.90;48.50;;;;;;5115286;28;20209;-82
2023/05/24 05:31:40;;;;;;;3.50;3.20;;;19.90;49.10;;;;;;5115207;28;20605;-82
2023/05/24 05:34:08;;;;;;;3.90;3.50;;;19.90;48.40;;;;;;5133980;28;20232;-82
2023/05/24 05:36:39;;;;;;;3.78;3.40;;;19.90;48.40;;;;;;5116056;28;20150;-82
2023/05/24 05:39:08;;;;;;;3.65;3.35;;;19.90;48.40;;;;;;5099137;28;20262;-82
2023/05/24 05:41:36;;;;;;;4.30;3.60;;;19.90;48.40;;;;;;5111884;28;20176;-82
2023/05/24 05:44:01;;;;;;;3.60;3.30;;;19.90;48.40;;;;;;5095262;28;20168;-83
2023/05/24 05:46:27;;;;;;;3.50;3.20;;;19.90;48.30;;;;;;5095273;28;20148;-82
2023/05/24 05:48:52;;;;;;;3.72;3.40;;;19.90;48.30;;;;;;5095164;28;20583;-83
2023/05/24 05:51:18;;;;;;;3.90;3.50;;;19.90;48.20;;;;;;5102318;28;20562;-82
2023/05/24 05:53:44;;;;;;;4.13;3.65;;;19.90;48.30;;;;;;5098690;28;20551;-82
2023/05/24 05:56:09;;;;;;;3.80;3.40;;;19.90;48.30;;;;;;5115442;28;20603;-82
2023/05/24 05:58:37;;;;;;;3.55;3.25;;;19.90;48.30;;;;;;5101059;27;20257;-82
2023/05/24 06:01:03;;;;;;;4.13;3.30;;;19.90;48.30;;;;;;5136799;27;20164;-82
2023/05/24 06:03:28;;;;;;;3.40;3.10;;;20.00;48.30;;;;;;5138136;27;20243;-81
2023/05/24 06:06:04;;;;;;;3.45;3.15;;;19.90;48.40;;;;;;5117943;27;20678;-82
2023/05/24 06:08:33;;;;;;;3.63;3.33;;;20.00;48.40;;;;;;5117781;27;20174;-82
2023/05/24 06:11:00;;;;;;;3.80;3.40;;;20.00;48.30;;;;;;5101957;27;20163;-82
2023/05/24 06:13:27;;;;;;;3.63;3.33;;;20.00;48.20;;;;;;5118795;27;20234;-81
2023/05/24 06:15:53;;;;;;;3.53;3.22;;;20.00;48.20;;;;;;5137068;27;20139;-82
2023/05/24 06:18:19;;;;;;;3.67;3.30;;;20.00;48.20;;;;;;5102134;27;20163;-81
2023/05/24 06:20:48;;;;;;;3.45;3.15;;;20.00;48.20;;;;;;5119412;27;20170;-81
2023/05/24 06:23:15;;;;;;;3.47;3.17;;;20.00;48.20;;;;;;5118201;27;20581;-82
2023/05/24 06:25:49;;;;;;;3.72;3.05;;;20.00;48.20;;;;;;5119145;27;20226;-82
2023/05/24 06:28:15;;;;;;;3.53;3.17;;;20.00;48.40;;;;;;5120486;27;20663;-82
2023/05/24 06:30:41;;;;;;;3.83;3.42;;;20.00;48.40;;;;;;5102804;27;20247;-82
2023/05/24 06:33:06;;;;;;;4.00;3.60;;;20.00;48.40;;;;;;5119391;27;20164;-82
2023/05/24 06:35:32;;;;;;;3.55;3.20;;;20.10;48.20;;;;;;5119386;27;20217;-83
2023/05/24 06:37:58;;;;;;;4.57;3.35;;;20.10;48.30;;;;;;5119343;27;20190;-82
2023/05/24 06:40:23;;;;;;;4.25;3.20;;;20.00;48.40;;;;;;5119289;27;20530;-82
2023/05/24 06:42:49;;;;;;;3.70;3.40;;;20.00;48.50;;;;;;5137622;27;20151;-83
2023/05/24 06:45:14;;;;;;;3.90;3.10;;;20.00;48.90;;;;;;5138066;27;20156;-82
2023/05/24 06:48:00;;;;;;;3.83;3.10;;;19.90;48.90;;;;;;5138196;27;20637;-82
2023/05/24 06:50:26;;;;;;;3.80;3.40;;;19.90;49.00;;;;;;5080851;28;20310;-82
2023/05/24 06:52:52;;;;;;;3.30;3.00;;;19.90;49.10;;;;;;5098248;28;20175;-82
2023/05/24 06:55:21;;;;;;;3.38;3.08;;;19.80;49.40;;;;;;5097706;28;20180;-81
2023/05/24 06:57:47;;;;;;;4.30;3.42;;;19.90;49.50;;;;;;5081728;28;20196;-82
2023/05/24 07:00:13;;;;;;;3.65;3.35;;;19.90;49.30;;;;;;5114275;28;20215;-82
2023/05/24 07:02:44;;;;;;;4.45;3.20;;;19.90;49.70;;;;;;5080128;28;20172;-82
2023/05/24 07:05:30;;;;;;;3.10;2.80;;;19.90;49.40;;;;;;5100395;28;20282;-82
2023/05/24 07:08:16;;;;;;;3.58;3.10;;;19.80;49.80;;;;;;5081939;28;20184;-83
2023/05/24 07:10:50;;;;;;;3.72;3.30;;;19.80;49.90;;;;;;5080844;28;20215;-82
2023/05/24 07:13:19;;;;;;;4.05;3.20;;;19.70;50.10;;;;;;5082044;28;20578;-81
2023/05/24 07:15:45;;;;;;;6.20;3.10;;;19.80;50.40;;;;;;5081029;28;20179;-81
2023/05/24 07:18:11;;;;;;;4.63;2.92;;;19.70;50.50;;;;;;5081048;28;20183;-81
2023/05/24 07:20:37;;;;;;;6.15;3.08;;;19.80;50.30;;;;;;5088254;27;20183;-81
2023/05/24 07:23:03;;;;;;;3.40;3.10;;;19.70;50.40;;;;;;5119482;27;20155;-81
2023/05/24 07:25:29;;;;;;;4.15;3.03;;;19.70;50.40;;;;;;5101035;27;20217;-81
2023/05/24 07:27:55;;;;;;;3.50;3.20;;;19.70;50.10;;;;;;5119235;27;20292;-81
2023/05/24 07:30:22;;;;;;;3.15;2.70;;;19.80;50.10;;;;;;5119281;27;20595;-81
2023/05/24 07:32:48;;;;;;;3.50;3.10;;;19.90;49.80;;;;;;5118668;27;20159;-81
2023/05/24 07:35:15;;;;;;;4.78;2.97;;;20.10;49.40;;;;;;5101762;27;20165;-80
2023/05/24 07:37:41;;;;;;;3.20;2.90;;;20.10;49.30;;;;;;5118694;27;20238;-81
2023/05/24 07:40:10;;;;;;;3.50;3.20;;;20.10;49.20;;;;;;5100996;27;20197;-81
2023/05/24 07:42:37;;;;;;;3.20;2.90;;;20.20;49.20;;;;;;5135362;27;20160;-81
2023/05/24 07:45:02;;;;;;;4.07;3.03;;;20.20;49.10;;;;;;5117771;27;20665;-81
2023/05/24 07:47:28;;;;;;;3.95;3.03;;;20.20;48.90;;;;;;5117827;27;20164;-81
2023/05/24 07:49:54;;;;;;;3.92;3.05;;;20.10;49.10;;;;;;5117526;27;20284;-81
2023/05/24 07:52:20;;;;;;;3.28;2.97;;;20.10;49.10;;;;;;5117467;27;20501;-81
2023/05/24 07:54:46;;;;;;;4.72;3.20;;;20.20;49.00;;;;;;5135738;27;20275;-82
2023/05/24 07:57:12;;;;;;;3.30;3.00;;;20.20;48.80;;;;;;5117439;27;20155;-81
2023/05/24 07:59:37;;;;;;;3.80;2.85;;;20.20;48.80;;;;;;5135945;27;20171;-81
2023/05/24 08:02:04;;;;;;;3.30;3.00;;;20.20;48.80;;;;;;5117220;27;20212;-81
2023/05/24 08:04:31;;;;;;;3.97;3.08;;;20.20;48.90;;;;;;5117079;27;20167;-81
2023/05/24 08:06:57;;;;;;;4.32;3.30;;;20.20;48.90;;;;;;5100506;27;20191;-81
2023/05/24 08:09:22;;;;;;;4.55;3.15;;;20.20;48.90;;;;;;5117355;27;20207;-80
2023/05/24 08:11:48;;;;;;;3.38;3.08;;;20.20;48.90;;;;;;5135421;27;20633;-81
2023/05/24 08:14:14;;;;;;;3.33;3.00;;;20.20;48.80;;;;;;5100091;27;20160;-81
2023/05/24 08:16:39;;;;;;;3.92;3.30;;;20.20;48.90;;;;;;5099746;27;20156;-82
2023/05/24 08:19:05;;;;;;;3.58;3.17;;;20.30;48.90;;;;;;5116761;27;20201;-81
2023/05/24 08:21:32;;;;;;;3.17;2.83;;;20.20;49.50;;;;;;5115431;27;20155;-81
2023/05/24 08:23:59;;;;;;;3.17;2.88;;;20.20;48.90;;;;;;5133609;27;20156;-81
2023/05/24 08:26:25;;;;;;;3.20;2.90;;;20.20;49.00;;;;;;5099704;27;20196;-80
2023/05/24 08:28:51;;;;;;;3.78;3.05;;;20.30;49.10;;;;;;5116721;27;20195;-80
2023/05/24 08:31:17;;;;;;;3.13;2.83;;;20.20;48.90;;;;;;5100006;27;20238;-80
2023/05/24 08:33:43;;;;;;;3.28;2.92;;;20.20;48.80;;;;;;5116410;27;20657;-80
2023/05/24 08:36:09;;;;;;;3.22;2.92;;;20.30;48.80;;;;;;5099168;27;20175;-80
2023/05/24 08:38:34;;;;;;;3.50;3.20;;;20.30;48.90;;;;;;5099272;27;20240;-81
2023/05/24 08:41:03;;;;;;;3.72;2.88;;;20.20;48.90;;;;;;5099534;27;20529;-80
2023/05/24 08:43:28;;;;;;;3.20;2.90;;;20.30;49.10;;;;;;5099652;27;20159;-81
2023/05/24 08:45:54;;;;;;;3.25;2.95;;;20.20;49.10;;;;;;5099345;27;20171;-82
2023/05/24 08:48:20;;;;;;;4.00;3.08;;;20.20;49.20;;;;;;5116143;27;20601;-81
2023/05/24 08:50:46;;;;;;;3.88;2.90;;;20.10;49.20;;;;;;5116769;27;20205;-81
2023/05/24 08:53:11;;;;;;;6.80;3.15;;;20.20;49.10;;;;;;5116212;27;20165;-81
2023/05/24 08:55:37;;;;;;;3.67;3.25;;;20.30;48.80;;;;;;5116243;27;20601;-81
2023/05/24 08:58:03;;;;;;;3.63;3.05;;;20.30;48.80;;;;;;5116214;27;20610;-81
2023/05/24 09:00:29;;;;;;;3.20;2.90;;;20.30;48.80;;;;;;5134150;27;20670;-80
2023/05/24 09:02:55;;;;;;;3.40;3.10;;;20.30;48.70;;;;;;5090795;28;20180;-80
2023/05/24 09:05:23;;;;;;;4.03;3.17;;;20.40;48.70;;;;;;5058162;28;20177;-82
2023/05/24 09:07:56;;;;;;;3.42;3.10;;;20.40;48.70;;;;;;5074844;28;20207;-82
2023/05/24 09:10:21;;;;;;;4.95;3.10;;;20.40;48.50;;;;;;5042658;28;20641;-82
2023/05/24 09:12:50;;;;;;;3.25;2.95;;;20.40;48.30;;;;;;5041880;28;20737;-81
2023/05/24 09:15:22;;;;;;;6.07;3.08;;;20.50;48.20;;;;;;5041727;28;20172;-81
2023/05/24 09:17:50;;;;;;;4.18;3.10;;;20.50;48.30;;;;;;5051386;28;20177;-81
2023/05/24 09:20:16;;;;;;;3.65;2.90;;;20.40;48.10;;;;;;5034652;28;20197;-81
2023/05/24 09:22:41;;;;;;;2.97;2.78;;;20.40;48.20;;;;;;5051331;28;20181;-81
2023/05/24 09:25:08;;;;;;;3.40;3.10;;;20.40;48.30;;;;;;5051152;28;20274;-81
2023/05/24 09:27:34;;;;;;;3.35;3.05;;;20.40;47.80;;;;;;5017949;28;20271;-81
2023/05/24 09:30:00;;;;;;;4.35;2.97;;;20.50;47.70;;;;;;5034181;28;20636;-81
2023/05/24 09:32:29;;;;;;;3.17;2.88;;;20.50;47.90;;;;;;5035485;28;20582;-81
2023/05/24 09:35:01;;;;;;;3.20;2.90;;;20.40;47.90;;;;;;5042660;28;20177;-81
2023/05/24 09:37:28;;;;;;;3.47;3.13;;;20.40;47.90;;;;;;5044631;28;20200;-81
2023/05/24 09:39:54;;;;;;;3.40;3.10;;;20.40;48.00;;;;;;5077242;28;20145;-81
2023/05/24 09:42:23;;;;;;;3.80;2.92;;;20.50;48.00;;;;;;5061478;28;20276;-81
2023/05/24 09:45:00;;;;;;;3.13;2.80;;;20.50;47.70;;;;;;5077367;28;20500;-81
2023/05/24 09:47:30;;;;;;;3.47;3.15;;;20.50;47.60;;;;;;5060746;28;20156;-81
2023/05/24 09:49:56;;;;;;;3.30;3.00;;;20.50;47.50;;;;;;5105375;27;20157;-81
2023/05/24 09:52:21;;;;;;;3.05;2.75;;;20.50;47.60;;;;;;5122383;27;20226;-81
2023/05/24 09:54:47;;;;;;;3.28;2.97;;;20.50;47.40;;;;;;5140399;27;20159;-82
2023/05/24 09:57:16;;;;;;;3.28;2.97;;;20.50;47.50;;;;;;5105421;27;20174;-81
2023/05/24 09:59:43;;;;;;;3.85;3.20;;;20.50;47.40;;;;;;5140022;27;20187;-81
2023/05/24 10:02:10;;;;;;;3.10;2.85;;;20.50;47.30;;;;;;5106145;27;20518;-81
2023/05/24 10:04:37;;;;;;;3.30;3.00;;;20.60;47.20;;;;;;5122409;27;20151;-81
2023/05/24 10:07:04;;;;;;;3.83;2.90;;;20.60;47.10;;;;;;5122815;27;20594;-81
2023/05/24 10:09:32;;;;;;;3.97;2.90;;;20.60;47.20;;;;;;5122512;27;20274;-80
2023/05/24 10:12:06;;;;;;;4.80;2.80;;;20.60;47.00;;;;;;5122939;27;20572;-81
2023/05/24 10:14:35;;;;;;;2.83;2.60;;;20.60;46.90;;;;;;5122182;27;20159;-81
2023/05/24 10:17:04;;;;;;;4.32;2.85;;;20.60;46.80;;;;;;5140581;27;20147;-81
2023/05/24 10:19:32;;;;;;;3.63;2.97;;;20.60;46.70;;;;;;5140831;27;20236;-81
2023/05/24 10:21:58;;;;;;;3.20;2.90;;;20.70;46.60;;;;;;5122280;27;20154;-81
2023/05/24 10:24:25;;;;;;;3.00;2.70;;;20.70;46.60;;;;;;5140629;27;20215;-81
2023/05/24 10:26:51;;;;;;;3.35;2.78;;;20.60;46.50;;;;;;5140714;27;20163;-81
2023/05/24 10:29:26;;;;;;;3.10;2.80;;;20.60;46.70;;;;;;5122199;27;20572;-80
2023/05/24 10:31:52;;;;;;;2.80;2.55;;;20.60;46.50;;;;;;5122230;27;20147;-81
2023/05/24 10:34:18;;;;;;;3.47;3.00;;;20.60;46.30;;;;;;5140905;27;20209;-81
2023/05/24 10:36:43;;;;;;;3.10;2.80;;;20.70;46.30;;;;;;5122403;27;20234;-81
2023/05/24 10:39:11;;;;;;;4.38;3.05;;;20.70;46.20;;;;;;5122415;27;20169;-81
2023/05/24 10:41:39;;;;;;;2.80;2.60;;;20.70;46.20;;;;;;5139658;27;20524;-81
2023/05/24 10:44:09;;;;;;;2.92;2.63;;;20.70;45.90;;;;;;5137154;27;20167;-81
2023/05/24 10:46:35;;;;;;;3.22;2.60;;;20.80;46.00;;;;;;5119329;27;20155;-81
2023/05/24 10:49:01;;;;;;;2.85;2.55;;;20.80;45.80;;;;;;5118918;27;20183;-81
2023/05/24 10:51:35;;;;;;;3.05;2.75;;;20.80;45.70;;;;;;5135860;27;20163;-81
2023/05/24 10:54:11;;;;;;;3.40;3.05;;;20.80;45.80;;;;;;5135781;27;20317;-81
2023/05/24 10:56:41;;;;;;;2.53;2.33;;;20.80;45.80;;;;;;5118886;27;20178;-82
2023/05/24 10:59:07;;;;;;;2.80;2.60;;;20.80;45.80;;;;;;5101823;27;20192;-81
2023/05/24 11:01:33;;;;;;;3.67;2.78;;;20.80;45.80;;;;;;5118534;27;20238;-81
2023/05/24 11:04:15;;;;;;;3.58;2.83;;;20.80;45.50;;;;;;5101665;27;20163;-81
2023/05/24 11:06:48;;;;;;;2.80;2.53;;;20.80;45.60;;;;;;5101371;27;20220;-81
2023/05/24 11:09:15;;;;;;;2.65;2.45;;;20.80;45.20;;;;;;5136893;27;20180;-81
2023/05/24 11:11:44;;;;;;;2.70;2.50;;;20.80;45.30;;;;;;5101246;27;20586;-81
2023/05/24 11:14:10;;;;;;;2.67;2.47;;;20.80;45.40;;;;;;5118850;27;20155;-82
2023/05/24 11:16:36;;;;;;;3.35;2.65;;;20.80;45.30;;;;;;5119291;27;20177;-83
2023/05/24 11:19:13;;;;;;;3.75;2.90;;;20.90;45.50;;;;;;5118944;27;20494;-82
2023/05/24 11:21:40;;;;;;;4.68;2.95;;;20.80;45.40;;;;;;5119551;27;20164;-82
2023/05/24 11:24:06;;;;;;;2.63;2.42;;;20.80;45.00;;;;;;5100839;27;20675;-82
2023/05/24 11:26:31;;;;;;;3.30;2.88;;;20.80;45.00;;;;;;5117815;27;20168;-82
2023/05/24 11:29:21;;;;;;;2.85;2.58;;;20.80;45.10;;;;;;5135638;27;20191;-83
2023/05/24 11:31:48;;;;;;;2.90;2.67;;;20.80;45.00;;;;;;5118727;27;20238;-83
2023/05/24 11:34:14;;;;;;;2.80;2.55;;;20.90;45.00;;;;;;5100924;27;20206;-83
2023/05/24 11:36:40;;;;;;;3.00;2.80;;;20.80;44.90;;;;;;5136238;27;20144;-83
2023/05/24 11:39:08;;;;;;;3.05;2.60;;;20.80;44.80;;;;;;5117960;27;20186;-83
2023/05/24 11:41:35;;;;;;;3.08;2.78;;;20.80;44.70;;;;;;5101285;27;20617;-84
2023/05/24 11:44:01;;;;;;;2.70;2.50;;;20.80;44.70;;;;;;5101067;27;20168;-84
2023/05/24 11:46:27;;;;;;;5.55;2.70;;;20.90;44.60;;;;;;5101516;27;20163;-80
2023/05/24 11:49:00;;;;;;;2.92;2.72;;;20.90;44.60;;;;;;5117536;27;20183;-81
2023/05/24 11:51:28;;;;;;;3.30;2.72;;;20.90;44.60;;;;;;5117888;27;20234;-81
2023/05/24 11:53:55;;;;;;;3.05;2.75;;;20.90;44.50;;;;;;5118528;27;20152;-81
2023/05/24 11:56:22;;;;;;;2.60;2.40;;;20.90;44.50;;;;;;5117347;27;20151;-81
2023/05/24 11:58:49;;;;;;;3.10;2.80;;;20.90;44.30;;;;;;5118579;27;20147;-82
2023/05/24 12:01:29;;;;;;;2.65;2.35;;;20.90;44.10;;;;;;5117760;27;20151;-82
2023/05/24 12:03:56;;;;;;;2.70;2.50;;;20.90;44.00;;;;;;5117040;27;20151;-81
2023/05/24 12:06:21;;;;;;;2.60;2.40;;;21.00;43.90;;;;;;5118132;27;20151;-81
2023/05/24 12:08:47;;;;;;;3.10;2.70;;;21.10;43.60;;;;;;5135375;27;20209;-80
2023/05/24 12:11:14;;;;;;;3.92;2.75;;;21.10;43.50;;;;;;5101089;27;20159;-83
2023/05/24 12:13:40;;;;;;;3.10;2.80;;;21.10;43.80;;;;;;5117657;27;20144;-82
2023/05/24 12:16:06;;;;;;;3.25;2.42;;;21.00;43.90;;;;;;5118557;27;20672;-81
2023/05/24 12:18:32;;;;;;;2.50;2.30;;;21.00;44.00;;;;;;5117265;27;20151;-81
2023/05/24 12:21:00;;;;;;;2.70;2.50;;;21.00;44.00;;;;;;5135450;27;20523;-81
2023/05/24 12:23:28;;;;;;;3.38;2.28;;;21.10;44.00;;;;;;5116528;27;20164;-82
2023/05/24 12:25:59;;;;;;;3.83;2.80;;;21.00;44.00;;;;;;5096422;28;20254;-82
2023/05/24 12:28:24;;;;;;;2.78;2.58;;;21.10;43.90;;;;;;5113879;28;20590;-81
2023/05/24 12:30:50;;;;;;;2.78;2.42;;;21.10;43.80;;;;;;5114297;28;20160;-81
2023/05/24 12:33:19;;;;;;;2.80;2.53;;;21.10;43.70;;;;;;5114632;28;20195;-81
2023/05/24 12:35:46;;;;;;;2.60;2.40;;;21.00;43.80;;;;;;5096981;28;20182;-80
2023/05/24 12:38:12;;;;;;;2.38;2.17;;;21.10;43.90;;;;;;5113861;28;20199;-83
2023/05/24 12:40:49;;;;;;;2.65;2.45;;;21.10;44.40;;;;;;5113784;28;20655;-82
2023/05/24 12:43:17;;;;;;;2.50;2.30;;;21.20;43.60;;;;;;5097641;28;20202;-82
2023/05/24 12:45:43;;;;;;;4.00;2.55;;;21.20;43.50;;;;;;5097160;28;20255;-81
2023/05/24 12:48:08;;;;;;;2.90;2.53;;;21.20;43.50;;;;;;5114156;28;20270;-82
2023/05/24 12:50:34;;;;;;;2.50;2.30;;;21.30;43.50;;;;;;5112809;28;20223;-81